KFYJ

Details ICAO KFYJ
Name MIDDLE PENINSULA RGNL
Region United States
Timezone America/New_York (UTC-4.0)
Plans Departing 5
Arriving 7
Stats Elevation 24 ft / 7 m (AMSL)
Location 37.521237° -76.764700°
Runways 1
Magnetic Variation 10.716° W
Sunrise 2018-05-24 09:52:50 UTC / 2018-05-24 05:52:50 Local
Sunset 2018-05-25 00:17:53 UTC / 2018-05-24 20:17:53 Local
Advertisement - Login to hide

Runways

ID Width Length Bearing (true) Bearing (mag) Surface Threshold Offset Overrun Length
09 75 ft / 23 m 3,745 ft / 1,142 m 86.14° 96.86° Asphalt 0 ft / 0 m 0 ft / 0 m
27 75 ft / 23 m 3,745 ft / 1,142 m 266.14° 276.86° Asphalt 0 ft / 0 m 0 ft / 0 m

Map

Weather


0- 5 10 15 20 25 30 35+ Temperature / ° C

Clouds and Precipitation
Forecast for 2018-05-24 18:00 UTC. Updated 4 hours ago

Ground ~20,000 ft ~40,000 ft Winds

METAR

KFYJ 242135Z AUTO 00000KT 10SM CLR 29/11 A3014 RMK AO1 T02850109

TAF

Not found

Frequencies

Recorded 132.82 MHz AWOS 3
Approach 126.40 MHz POTOMAC APP/DEP
Unicom 123.00 MHz CTAF/UNICOM
Warning: Do not use this data for real-world aviation or navigation. No guarantee of current accuracy is given.